sensor_id;sensor_type;location;lat;lon;timestamp;pressure;altitude;pressure_sealevel;temperature;humidity
62458;BME280;48509;52.122;5.250;2023-07-13T00:00:54;101302.0;;;19.06;86.78
62458;BME280;48509;52.122;5.250;2023-07-13T00:04:06;101301.0;;;19.25;85.58
62458;BME280;48509;52.122;5.250;2023-07-13T00:05:42;101300.0;;;19.16;85.96
62458;BME280;48509;52.122;5.250;2023-07-13T00:07:18;101305.0;;;19.16;85.57
62458;BME280;48509;52.122;5.250;2023-07-13T00:08:54;101307.0;;;19.06;86.4
62458;BME280;48509;52.122;5.250;2023-07-13T00:12:23;101303.0;;;19.07;86.31
62458;BME280;48509;52.122;5.250;2023-07-13T00:14:04;101305.0;;;19.13;86.22
62458;BME280;48509;52.122;5.250;2023-07-13T00:15:40;101307.0;;;19.05;86.41
62458;BME280;48509;52.122;5.250;2023-07-13T00:17:16;101313.0;;;18.91;87.19
62458;BME280;48509;52.122;5.250;2023-07-13T00:20:28;101309.0;;;18.87;88.13
62458;BME280;48509;52.122;5.250;2023-07-13T00:22:04;101305.0;;;18.93;86.76
62458;BME280;48509;52.122;5.250;2023-07-13T00:23:42;101303.0;;;19.03;86.86
62458;BME280;48509;52.122;5.250;2023-07-13T00:26:55;101295.0;;;19.13;85.44
62458;BME280;48509;52.122;5.250;2023-07-13T00:28:31;101302.0;;;19.06;85.57
62458;BME280;48509;52.122;5.250;2023-07-13T00:30:09;101303.0;;;19.09;85.96
62458;BME280;48509;52.122;5.250;2023-07-13T00:33:23;101308.0;;;19.04;85.5
62458;BME280;48509;52.122;5.250;2023-07-13T00:34:59;101306.0;;;19.03;86.38
62458;BME280;48509;52.122;5.250;2023-07-13T00:36:35;101307.0;;;18.87;86.75
62458;BME280;48509;52.122;5.250;2023-07-13T00:38:11;101314.0;;;18.79;87.02
62458;BME280;48509;52.122;5.250;2023-07-13T00:41:23;101306.0;;;18.72;87.41
62458;BME280;48509;52.122;5.250;2023-07-13T00:43:00;101308.0;;;18.81;86.48
62458;BME280;48509;52.122;5.250;2023-07-13T00:44:35;101307.0;;;18.73;86.71
62458;BME280;48509;52.122;5.250;2023-07-13T00:48:00;101306.0;;;18.56;87.87
62458;BME280;48509;52.122;5.250;2023-07-13T00:49:36;101309.0;;;18.52;87.68
62458;BME280;48509;52.122;5.250;2023-07-13T00:51:13;101307.0;;;18.56;87.61
62458;BME280;48509;52.122;5.250;2023-07-13T00:52:53;101307.0;;;18.59;88.38
62458;BME280;48509;52.122;5.250;2023-07-13T00:56:15;101299.0;;;18.53;88.74
62458;BME280;48509;52.122;5.250;2023-07-13T00:57:51;101302.0;;;18.57;88.13
62458;BME280;48509;52.122;5.250;2023-07-13T01:02:44;101305.0;;;18.54;88.05
62458;BME280;48509;52.122;5.250;2023-07-13T01:04:23;101307.0;;;18.57;87.87
62458;BME280;48509;52.122;5.250;2023-07-13T01:06:00;101310.0;;;18.55;87.38
62458;BME280;48509;52.122;5.250;2023-07-13T01:07:36;101312.0;;;18.56;87.29
62458;BME280;48509;52.122;5.250;2023-07-13T01:10:52;101310.0;;;18.61;86.87
62458;BME280;48509;52.122;5.250;2023-07-13T01:12:29;101307.0;;;18.45;87.19
62458;BME280;48509;52.122;5.250;2023-07-13T01:14:05;101313.0;;;18.46;87.58
62458;BME280;48509;52.122;5.250;2023-07-13T01:17:20;101313.0;;;18.45;87.56
62458;BME280;48509;52.122;5.250;2023-07-13T01:18:57;101311.0;;;18.5;87.56
62458;BME280;48509;52.122;5.250;2023-07-13T01:20:34;101308.0;;;18.48;87.48
62458;BME280;48509;52.122;5.250;2023-07-13T01:22:13;101320.0;;;18.27;89.61
62458;BME280;48509;52.122;5.250;2023-07-13T01:25:28;101318.0;;;18.27;90.11
62458;BME280;48509;52.122;5.250;2023-07-13T01:27:05;101313.0;;;18.29;89.0
62458;BME280;48509;52.122;5.250;2023-07-13T01:28:42;101313.0;;;18.34;89.07
62458;BME280;48509;52.122;5.250;2023-07-13T01:31:55;101322.0;;;18.36;89.19
62458;BME280;48509;52.122;5.250;2023-07-13T01:33:31;101322.0;;;18.25;90.71
62458;BME280;48509;52.122;5.250;2023-07-13T01:35:07;101322.0;;;18.25;90.12
62458;BME280;48509;52.122;5.250;2023-07-13T01:36:43;101320.0;;;18.14;90.61
62458;BME280;48509;52.122;5.250;2023-07-13T01:39:59;101322.0;;;18.2;91.13
62458;BME280;48509;52.122;5.250;2023-07-13T01:41:35;101325.0;;;18.23;90.6
62458;BME280;48509;52.122;5.250;2023-07-13T01:43:11;101319.0;;;18.3;90.09
62458;BME280;48509;52.122;5.250;2023-07-13T01:46:24;101317.0;;;18.3;89.94
62458;BME280;48509;52.122;5.250;2023-07-13T01:48:00;101321.0;;;18.28;90.39
62458;BME280;48509;52.122;5.250;2023-07-13T01:49:37;101322.0;;;18.27;90.8
62458;BME280;48509;52.122;5.250;2023-07-13T01:52:49;101323.0;;;18.29;90.6
62458;BME280;48509;52.122;5.250;2023-07-13T01:54:25;101325.0;;;18.2;91.48
62458;BME280;48509;52.122;5.250;2023-07-13T01:56:01;101328.0;;;18.11;92.37
62458;BME280;48509;52.122;5.250;2023-07-13T01:57:37;101330.0;;;18.12;92.28
62458;BME280;48509;52.122;5.250;2023-07-13T02:00:51;101326.0;;;18.11;92.27
62458;BME280;48509;52.122;5.250;2023-07-13T02:02:28;101326.0;;;18.16;92.08
62458;BME280;48509;52.122;5.250;2023-07-13T02:04:04;101326.0;;;18.14;92.38
62458;BME280;48509;52.122;5.250;2023-07-13T02:07:16;101324.0;;;18.04;92.98
62458;BME280;48509;52.122;5.250;2023-07-13T02:08:52;101322.0;;;18.06;92.95
62458;BME280;48509;52.122;5.250;2023-07-13T02:10:29;101325.0;;;18.02;93.4
62458;BME280;48509;52.122;5.250;2023-07-13T02:13:43;101325.0;;;17.89;94.4
62458;BME280;48509;52.122;5.250;2023-07-13T02:15:19;101323.0;;;17.91;94.19
62458;BME280;48509;52.122;5.250;2023-07-13T02:16:55;101339.0;;;18.06;93.69
62458;BME280;48509;52.122;5.250;2023-07-13T02:18:31;101338.0;;;17.97;94.31
62458;BME280;48509;52.122;5.250;2023-07-13T02:21:44;101332.0;;;17.93;94.4
62458;BME280;48509;52.122;5.250;2023-07-13T02:23:20;101334.0;;;17.93;94.83
62458;BME280;48509;52.122;5.250;2023-07-13T02:24:57;101334.0;;;17.8;95.62
62458;BME280;48509;52.122;5.250;2023-07-13T02:28:10;101332.0;;;17.8;95.69
62458;BME280;48509;52.122;5.250;2023-07-13T02:29:46;101336.0;;;17.89;94.85
62458;BME280;48509;52.122;5.250;2023-07-13T02:31:22;101342.0;;;17.86;95.44
62458;BME280;48509;52.122;5.250;2023-07-13T02:34:34;101341.0;;;17.82;95.99
62458;BME280;48509;52.122;5.250;2023-07-13T02:36:11;101338.0;;;17.77;96.55
62458;BME280;48509;52.122;5.250;2023-07-13T02:37:49;101332.0;;;17.8;96.44
62458;BME280;48509;52.122;5.250;2023-07-13T02:41:01;101334.0;;;17.71;97.63
62458;BME280;48509;52.122;5.250;2023-07-13T02:42:37;101336.0;;;17.63;98.5
62458;BME280;48509;52.122;5.250;2023-07-13T02:44:14;101340.0;;;17.61;98.77
62458;BME280;48509;52.122;5.250;2023-07-13T02:45:50;101341.0;;;17.66;98.74
62458;BME280;48509;52.122;5.250;2023-07-13T02:49:03;101340.0;;;17.88;97.49
62458;BME280;48509;52.122;5.250;2023-07-13T02:50:40;101339.0;;;17.98;96.74
62458;BME280;48509;52.122;5.250;2023-07-13T02:52:16;101338.0;;;17.98;96.93
62458;BME280;48509;52.122;5.250;2023-07-13T02:55:28;101335.0;;;17.91;97.67
62458;BME280;48509;52.122;5.250;2023-07-13T02:57:05;101338.0;;;17.82;98.66
62458;BME280;48509;52.122;5.250;2023-07-13T02:58:41;101336.0;;;17.77;98.8
62458;BME280;48509;52.122;5.250;2023-07-13T03:01:54;101330.0;;;17.75;98.78
62458;BME280;48509;52.122;5.250;2023-07-13T03:03:30;101337.0;;;17.7;99.22
62458;BME280;48509;52.122;5.250;2023-07-13T03:05:06;101339.0;;;17.68;99.43
62458;BME280;48509;52.122;5.250;2023-07-13T03:06:43;101340.0;;;17.68;99.6
62458;BME280;48509;52.122;5.250;2023-07-13T03:09:56;101343.0;;;17.59;100.0
62458;BME280;48509;52.122;5.250;2023-07-13T03:11:32;101341.0;;;17.59;100.0
62458;BME280;48509;52.122;5.250;2023-07-13T03:13:09;101344.0;;;17.61;100.0
62458;BME280;48509;52.122;5.250;2023-07-13T03:16:21;101349.0;;;17.59;100.0
62458;BME280;48509;52.122;5.250;2023-07-13T03:17:58;101346.0;;;17.61;100.0
62458;BME280;48509;52.122;5.250;2023-07-13T03:19:34;101342.0;;;17.54;100.0
62458;BME280;48509;52.122;5.250;2023-07-13T03:22:46;101342.0;;;17.59;100.0
62458;BME280;48509;52.122;5.250;2023-07-13T03:24:23;101340.0;;;17.43;100.0
62458;BME280;48509;52.122;5.250;2023-07-13T03:26:04;101342.0;;;17.36;100.0
62458;BME280;48509;52.122;5.250;2023-07-13T03:27:41;101342.0;;;17.37;100.0
62458;BME280;48509;52.122;5.250;2023-07-13T03:30:59;101347.0;;;17.41;100.0
62458;BME280;48509;52.122;5.250;2023-07-13T03:32:35;101352.0;;;17.28;100.0
62458;BME280;48509;52.122;5.250;2023-07-13T03:34:11;101360.0;;;17.25;100.0
62458;BME280;48509;52.122;5.250;2023-07-13T03:37:24;101359.0;;;17.25;100.0
62458;BME280;48509;52.122;5.250;2023-07-13T03:39:01;101358.0;;;17.25;100.0
62458;BME280;48509;52.122;5.250;2023-07-13T03:40:38;101364.0;;;17.27;100.0
62458;BME280;48509;52.122;5.250;2023-07-13T03:42:14;101367.0;;;17.23;100.0
62458;BME280;48509;52.122;5.250;2023-07-13T03:45:27;101369.0;;;17.38;100.0
62458;BME280;48509;52.122;5.250;2023-07-13T03:47:04;101364.0;;;17.48;100.0
62458;BME280;48509;52.122;5.250;2023-07-13T03:48:40;101370.0;;;17.38;100.0
62458;BME280;48509;52.122;5.250;2023-07-13T03:51:52;101370.0;;;17.43;100.0
62458;BME280;48509;52.122;5.250;2023-07-13T03:53:28;101367.0;;;17.45;100.0
62458;BME280;48509;52.122;5.250;2023-07-13T03:55:05;101369.0;;;17.52;100.0
62458;BME280;48509;52.122;5.250;2023-07-13T03:58:29;101371.0;;;17.5;100.0
62458;BME280;48509;52.122;5.250;2023-07-13T04:00:13;101373.0;;;17.34;100.0
62458;BME280;48509;52.122;5.250;2023-07-13T04:01:50;101374.0;;;17.41;100.0
62458;BME280;48509;52.122;5.250;2023-07-13T04:03:26;101376.0;;;17.43;100.0
62458;BME280;48509;52.122;5.250;2023-07-13T04:06:40;101382.0;;;17.34;100.0
62458;BME280;48509;52.122;5.250;2023-07-13T04:08:16;101384.0;;;17.46;100.0
62458;BME280;48509;52.122;5.250;2023-07-13T04:09:52;101389.0;;;17.41;100.0
62458;BME280;48509;52.122;5.250;2023-07-13T04:11:29;101390.0;;;17.43;100.0
62458;BME280;48509;52.122;5.250;2023-07-13T04:14:44;101387.0;;;17.43;100.0
62458;BME280;48509;52.122;5.250;2023-07-13T04:16:20;101389.0;;;17.37;100.0
62458;BME280;48509;52.122;5.250;2023-07-13T04:17:57;101387.0;;;17.46;100.0
62458;BME280;48509;52.122;5.250;2023-07-13T04:21:11;101390.0;;;17.43;100.0
62458;BME280;48509;52.122;5.250;2023-07-13T04:22:48;101400.0;;;17.43;100.0
62458;BME280;48509;52.122;5.250;2023-07-13T04:24:24;101401.0;;;17.39;100.0
62458;BME280;48509;52.122;5.250;2023-07-13T04:27:36;101399.0;;;17.43;100.0
62458;BME280;48509;52.122;5.250;2023-07-13T04:29:12;101399.0;;;17.5;100.0
62458;BME280;48509;52.122;5.250;2023-07-13T04:30:49;101402.0;;;17.57;100.0
62458;BME280;48509;52.122;5.250;2023-07-13T04:32:25;101397.0;;;17.64;100.0
62458;BME280;48509;52.122;5.250;2023-07-13T04:35:38;101400.0;;;17.73;100.0
62458;BME280;48509;52.122;5.250;2023-07-13T04:37:15;101401.0;;;17.66;100.0
62458;BME280;48509;52.122;5.250;2023-07-13T04:38:51;101408.0;;;17.73;100.0
62458;BME280;48509;52.122;5.250;2023-07-13T04:42:05;101403.0;;;17.73;100.0
62458;BME280;48509;52.122;5.250;2023-07-13T04:43:41;101408.0;;;17.75;100.0
62458;BME280;48509;52.122;5.250;2023-07-13T04:45:18;101406.0;;;17.87;100.0
62458;BME280;48509;52.122;5.250;2023-07-13T04:48:30;101405.0;;;17.81;100.0
62458;BME280;48509;52.122;5.250;2023-07-13T04:50:08;101409.0;;;17.77;100.0
62458;BME280;48509;52.122;5.250;2023-07-13T04:51:44;101405.0;;;17.79;100.0
62458;BME280;48509;52.122;5.250;2023-07-13T04:53:20;101405.0;;;17.77;100.0
62458;BME280;48509;52.122;5.250;2023-07-13T04:56:32;101408.0;;;18.02;100.0
62458;BME280;48509;52.122;5.250;2023-07-13T04:58:09;101406.0;;;18.02;100.0
62458;BME280;48509;52.122;5.250;2023-07-13T04:59:45;101405.0;;;18.03;100.0
62458;BME280;48509;52.122;5.250;2023-07-13T05:02:58;101412.0;;;18.11;100.0
62458;BME280;48509;52.122;5.250;2023-07-13T05:04:34;101409.0;;;18.12;100.0
62458;BME280;48509;52.122;5.250;2023-07-13T05:06:10;101413.0;;;18.18;100.0
62458;BME280;48509;52.122;5.250;2023-07-13T05:09:22;101414.0;;;18.09;100.0
62458;BME280;48509;52.122;5.250;2023-07-13T05:10:59;101411.0;;;18.11;100.0
62458;BME280;48509;52.122;5.250;2023-07-13T05:12:36;101414.0;;;18.25;100.0
62458;BME280;48509;52.122;5.250;2023-07-13T05:15:55;101419.0;;;18.34;100.0
62458;BME280;48509;52.122;5.250;2023-07-13T05:17:32;101419.0;;;18.27;100.0
62458;BME280;48509;52.122;5.250;2023-07-13T05:19:10;101420.0;;;18.34;100.0
62458;BME280;48509;52.122;5.250;2023-07-13T05:20:46;101417.0;;;18.45;100.0
62458;BME280;48509;52.122;5.250;2023-07-13T05:23:59;101418.0;;;18.52;100.0
62458;BME280;48509;52.122;5.250;2023-07-13T05:25:35;101416.0;;;18.41;100.0
62458;BME280;48509;52.122;5.250;2023-07-13T05:27:11;101418.0;;;18.41;100.0
62458;BME280;48509;52.122;5.250;2023-07-13T05:30:23;101425.0;;;18.46;100.0
62458;BME280;48509;52.122;5.250;2023-07-13T05:32:00;101430.0;;;18.53;100.0
62458;BME280;48509;52.122;5.250;2023-07-13T05:33:36;101432.0;;;18.5;100.0
62458;BME280;48509;52.122;5.250;2023-07-13T05:35:12;101432.0;;;18.59;100.0
62458;BME280;48509;52.122;5.250;2023-07-13T05:38:25;101434.0;;;18.48;100.0
62458;BME280;48509;52.122;5.250;2023-07-13T05:40:01;101433.0;;;18.56;100.0
62458;BME280;48509;52.122;5.250;2023-07-13T05:41:37;101438.0;;;18.5;100.0
62458;BME280;48509;52.122;5.250;2023-07-13T05:44:51;101437.0;;;18.38;100.0
62458;BME280;48509;52.122;5.250;2023-07-13T05:46:28;101433.0;;;18.38;100.0
62458;BME280;48509;52.122;5.250;2023-07-13T05:48:04;101431.0;;;18.48;100.0
62458;BME280;48509;52.122;5.250;2023-07-13T05:51:16;101434.0;;;18.41;100.0
62458;BME280;48509;52.122;5.250;2023-07-13T05:52:52;101440.0;;;18.5;100.0
62458;BME280;48509;52.122;5.250;2023-07-13T05:54:29;101440.0;;;18.59;100.0
62458;BME280;48509;52.122;5.250;2023-07-13T05:56:05;101445.0;;;18.62;100.0
62458;BME280;48509;52.122;5.250;2023-07-13T05:59:17;101448.0;;;18.55;100.0
62458;BME280;48509;52.122;5.250;2023-07-13T06:00:59;101455.0;;;18.7;100.0
62458;BME280;48509;52.122;5.250;2023-07-13T06:02:36;101459.0;;;18.68;100.0
62458;BME280;48509;52.122;5.250;2023-07-13T06:05:48;101461.0;;;18.77;100.0
62458;BME280;48509;52.122;5.250;2023-07-13T06:07:25;101463.0;;;18.88;100.0
62458;BME280;48509;52.122;5.250;2023-07-13T06:09:01;101462.0;;;18.96;100.0
62458;BME280;48509;52.122;5.250;2023-07-13T06:12:14;101463.0;;;19.02;100.0
62458;BME280;48509;52.122;5.250;2023-07-13T06:13:51;101466.0;;;18.93;100.0
62458;BME280;48509;52.122;5.250;2023-07-13T06:15:27;101468.0;;;19.0;100.0
62458;BME280;48509;52.122;5.250;2023-07-13T06:17:04;101473.0;;;19.09;100.0
62458;BME280;48509;52.122;5.250;2023-07-13T06:20:18;101480.0;;;19.28;100.0
62458;BME280;48509;52.122;5.250;2023-07-13T06:21:54;101475.0;;;19.23;100.0
62458;BME280;48509;52.122;5.250;2023-07-13T06:23:30;101477.0;;;19.3;100.0
62458;BME280;48509;52.122;5.250;2023-07-13T06:26:43;101476.0;;;19.25;100.0
62458;BME280;48509;52.122;5.250;2023-07-13T06:28:19;101487.0;;;19.25;99.93
62458;BME280;48509;52.122;5.250;2023-07-13T06:29:55;101486.0;;;19.3;100.0
62458;BME280;48509;52.122;5.250;2023-07-13T06:33:07;101486.0;;;19.14;100.0
62458;BME280;48509;52.122;5.250;2023-07-13T06:34:43;101485.0;;;19.18;99.7
62458;BME280;48509;52.122;5.250;2023-07-13T06:36:19;101486.0;;;19.3;100.0
62458;BME280;48509;52.122;5.250;2023-07-13T06:37:55;101483.0;;;19.45;100.0
62458;BME280;48509;52.122;5.250;2023-07-13T06:42:45;101484.0;;;19.66;99.52
62458;BME280;48509;52.122;5.250;2023-07-13T06:44:21;101480.0;;;19.66;98.28
62458;BME280;48509;52.122;5.250;2023-07-13T06:47:34;101480.0;;;19.46;98.05
62458;BME280;48509;52.122;5.250;2023-07-13T06:49:10;101486.0;;;19.55;99.1
62458;BME280;48509;52.122;5.250;2023-07-13T06:50:48;101485.0;;;19.52;98.47
62458;BME280;48509;52.122;5.250;2023-07-13T06:54:01;101489.0;;;19.54;98.88
62458;BME280;48509;52.122;5.250;2023-07-13T06:55:37;101493.0;;;19.64;98.58
62458;BME280;48509;52.122;5.250;2023-07-13T06:57:14;101505.0;;;19.72;99.29
62458;BME280;48509;52.122;5.250;2023-07-13T06:58:50;101497.0;;;19.7;100.0
62458;BME280;48509;52.122;5.250;2023-07-13T07:02:03;101503.0;;;19.77;99.94
62458;BME280;48509;52.122;5.250;2023-07-13T07:03:40;101507.0;;;19.84;99.01
62458;BME280;48509;52.122;5.250;2023-07-13T07:05:16;101513.0;;;19.87;99.08
62458;BME280;48509;52.122;5.250;2023-07-13T07:08:28;101513.0;;;19.54;99.95
62458;BME280;48509;52.122;5.250;2023-07-13T07:10:05;101514.0;;;19.64;100.0
62458;BME280;48509;52.122;5.250;2023-07-13T07:11:41;101518.0;;;19.61;100.0
62458;BME280;48509;52.122;5.250;2023-07-13T07:14:55;101519.0;;;19.59;100.0
62458;BME280;48509;52.122;5.250;2023-07-13T07:16:31;101520.0;;;19.32;100.0
62458;BME280;48509;52.122;5.250;2023-07-13T07:18:07;101521.0;;;19.43;100.0
62458;BME280;48509;52.122;5.250;2023-07-13T07:21:19;101528.0;;;19.22;100.0
62458;BME280;48509;52.122;5.250;2023-07-13T07:22:55;101530.0;;;19.14;100.0
62458;BME280;48509;52.122;5.250;2023-07-13T07:24:31;101527.0;;;19.21;100.0
62458;BME280;48509;52.122;5.250;2023-07-13T07:26:08;101528.0;;;19.25;100.0
62458;BME280;48509;52.122;5.250;2023-07-13T07:29:21;101525.0;;;19.18;100.0
62458;BME280;48509;52.122;5.250;2023-07-13T07:30:57;101528.0;;;19.28;100.0
62458;BME280;48509;52.122;5.250;2023-07-13T07:32:34;101521.0;;;19.34;100.0
62458;BME280;48509;52.122;5.250;2023-07-13T07:35:46;101522.0;;;19.21;100.0
62458;BME280;48509;52.122;5.250;2023-07-13T07:37:22;101515.0;;;19.21;100.0
62458;BME280;48509;52.122;5.250;2023-07-13T07:39:00;101507.0;;;19.29;100.0
62458;BME280;48509;52.122;5.250;2023-07-13T07:42:13;101503.0;;;19.36;100.0
62458;BME280;48509;52.122;5.250;2023-07-13T07:45:26;101507.0;;;19.52;100.0
62458;BME280;48509;52.122;5.250;2023-07-13T07:47:03;101509.0;;;19.41;100.0
62458;BME280;48509;52.122;5.250;2023-07-13T07:50:16;101510.0;;;19.53;100.0
62458;BME280;48509;52.122;5.250;2023-07-13T07:51:52;101509.0;;;19.68;100.0
62458;BME280;48509;52.122;5.250;2023-07-13T07:53:28;101518.0;;;19.61;100.0
62458;BME280;48509;52.122;5.250;2023-07-13T07:56:43;101519.0;;;19.68;100.0
62458;BME280;48509;52.122;5.250;2023-07-13T07:58:20;101523.0;;;19.64;100.0
62458;BME280;48509;52.122;5.250;2023-07-13T07:59:56;101522.0;;;19.68;100.0
62458;BME280;48509;52.122;5.250;2023-07-13T08:03:09;101526.0;;;19.52;100.0
62458;BME280;48509;52.122;5.250;2023-07-13T08:04:46;101530.0;;;19.5;100.0
62458;BME280;48509;52.122;5.250;2023-07-13T08:06:23;101527.0;;;19.41;100.0
62458;BME280;48509;52.122;5.250;2023-07-13T08:08:00;101520.0;;;19.43;100.0
62458;BME280;48509;52.122;5.250;2023-07-13T08:11:12;101517.0;;;19.46;100.0
62458;BME280;48509;52.122;5.250;2023-07-13T08:12:48;101511.0;;;19.59;100.0
62458;BME280;48509;52.122;5.250;2023-07-13T08:14:25;101516.0;;;19.71;100.0
62458;BME280;48509;52.122;5.250;2023-07-13T08:17:40;101516.0;;;19.73;100.0
62458;BME280;48509;52.122;5.250;2023-07-13T08:19:17;101526.0;;;19.82;100.0
62458;BME280;48509;52.122;5.250;2023-07-13T08:20:53;101516.0;;;19.89;100.0
62458;BME280;48509;52.122;5.250;2023-07-13T08:24:06;101519.0;;;20.07;100.0
62458;BME280;48509;52.122;5.250;2023-07-13T08:25:43;101521.0;;;20.13;100.0
62458;BME280;48509;52.122;5.250;2023-07-13T08:27:28;101524.0;;;20.34;100.0
62458;BME280;48509;52.122;5.250;2023-07-13T08:29:04;101527.0;;;20.34;97.83
62458;BME280;48509;52.122;5.250;2023-07-13T08:32:17;101527.0;;;20.25;94.1
62458;BME280;48509;52.122;5.250;2023-07-13T08:33:55;101530.0;;;20.32;95.13
62458;BME280;48509;52.122;5.250;2023-07-13T08:35:31;101530.0;;;20.54;95.6
62458;BME280;48509;52.122;5.250;2023-07-13T08:38:45;101533.0;;;20.46;91.06
62458;BME280;48509;52.122;5.250;2023-07-13T08:40:25;101540.0;;;20.45;87.54
62458;BME280;48509;52.122;5.250;2023-07-13T08:42:04;101552.0;;;20.04;86.28
62458;BME280;48509;52.122;5.250;2023-07-13T08:43:50;101567.0;;;19.75;84.36
62458;BME280;48509;52.122;5.250;2023-07-13T08:45:38;101564.0;;;19.27;88.88
62458;BME280;48509;52.122;5.250;2023-07-13T08:49:03;101561.0;;;19.36;91.88
62458;BME280;48509;52.122;5.250;2023-07-13T08:50:48;101558.0;;;19.41;92.39
62458;BME280;48509;52.122;5.250;2023-07-13T08:52:38;101556.0;;;19.43;92.26
62458;BME280;48509;52.122;5.250;2023-07-13T08:54:20;101559.0;;;19.02;95.09
62458;BME280;48509;52.122;5.250;2023-07-13T08:56:00;101562.0;;;18.95;98.03
62458;BME280;48509;52.122;5.250;2023-07-13T08:59:20;101566.0;;;18.84;96.47
62458;BME280;48509;52.122;5.250;2023-07-13T09:01:04;101560.0;;;18.61;98.81
62458;BME280;48509;52.122;5.250;2023-07-13T09:02:46;101563.0;;;18.45;100.0
62458;BME280;48509;52.122;5.250;2023-07-13T09:04:32;101561.0;;;18.47;100.0
62458;BME280;48509;52.122;5.250;2023-07-13T09:08:04;101562.0;;;18.38;100.0
62458;BME280;48509;52.122;5.250;2023-07-13T09:09:55;101565.0;;;18.22;100.0
62458;BME280;48509;52.122;5.250;2023-07-13T09:11:50;101559.0;;;18.37;100.0
62458;BME280;48509;52.122;5.250;2023-07-13T09:13:37;101557.0;;;18.48;100.0
62458;BME280;48509;52.122;5.250;2023-07-13T09:15:25;101556.0;;;18.43;100.0
62458;BME280;48509;52.122;5.250;2023-07-13T09:17:07;101552.0;;;18.56;100.0
62458;BME280;48509;52.122;5.250;2023-07-13T09:20:33;101549.0;;;18.68;100.0
62458;BME280;48509;52.122;5.250;2023-07-13T09:22:16;101547.0;;;18.95;100.0
62458;BME280;48509;52.122;5.250;2023-07-13T09:24:00;101548.0;;;19.02;100.0
62458;BME280;48509;52.122;5.250;2023-07-13T09:26:03;101548.0;;;19.09;100.0
62458;BME280;48509;52.122;5.250;2023-07-13T09:27:44;101551.0;;;19.27;100.0
62458;BME280;48509;52.122;5.250;2023-07-13T09:31:08;101563.0;;;19.54;100.0
62458;BME280;48509;52.122;5.250;2023-07-13T09:32:51;101555.0;;;19.59;100.0
62458;BME280;48509;52.122;5.250;2023-07-13T09:34:29;101552.0;;;19.72;100.0
62458;BME280;48509;52.122;5.250;2023-07-13T09:36:18;101556.0;;;19.71;100.0
62458;BME280;48509;52.122;5.250;2023-07-13T09:38:04;101572.0;;;19.63;100.0
62458;BME280;48509;52.122;5.250;2023-07-13T09:41:29;101578.0;;;19.45;100.0
62458;BME280;48509;52.122;5.250;2023-07-13T09:43:10;101575.0;;;19.03;100.0
62458;BME280;48509;52.122;5.250;2023-07-13T09:44:54;101592.0;;;18.59;100.0
62458;BME280;48509;52.122;5.250;2023-07-13T09:46:30;101585.0;;;18.52;100.0
62458;BME280;48509;52.122;5.250;2023-07-13T09:49:54;101586.0;;;18.07;100.0
62458;BME280;48509;52.122;5.250;2023-07-13T09:51:31;101582.0;;;17.77;100.0
62458;BME280;48509;52.122;5.250;2023-07-13T09:53:12;101576.0;;;17.82;100.0
62458;BME280;48509;52.122;5.250;2023-07-13T09:54:51;101581.0;;;17.86;100.0
62458;BME280;48509;52.122;5.250;2023-07-13T09:58:10;101582.0;;;17.93;100.0
62458;BME280;48509;52.122;5.250;2023-07-13T09:59:50;101585.0;;;18.18;100.0
62458;BME280;48509;52.122;5.250;2023-07-13T10:01:33;101584.0;;;18.36;100.0
62458;BME280;48509;52.122;5.250;2023-07-13T10:03:16;101583.0;;;18.36;100.0
62458;BME280;48509;52.122;5.250;2023-07-13T10:06:34;101578.0;;;18.43;100.0
62458;BME280;48509;52.122;5.250;2023-07-13T10:08:21;101584.0;;;18.59;100.0
62458;BME280;48509;52.122;5.250;2023-07-13T10:09:59;101584.0;;;18.61;100.0
62458;BME280;48509;52.122;5.250;2023-07-13T10:11:39;101578.0;;;18.71;100.0
62458;BME280;48509;52.122;5.250;2023-07-13T10:15:17;101583.0;;;18.86;100.0
62458;BME280;48509;52.122;5.250;2023-07-13T10:16:58;101589.0;;;19.14;100.0
62458;BME280;48509;52.122;5.250;2023-07-13T10:18:40;101596.0;;;19.34;100.0
62458;BME280;48509;52.122;5.250;2023-07-13T10:20:21;101588.0;;;19.5;100.0
62458;BME280;48509;52.122;5.250;2023-07-13T10:21:59;101592.0;;;19.66;100.0
62458;BME280;48509;52.122;5.250;2023-07-13T10:25:17;101595.0;;;19.68;100.0
62458;BME280;48509;52.122;5.250;2023-07-13T10:26:57;101592.0;;;19.68;100.0
62458;BME280;48509;52.122;5.250;2023-07-13T10:28:52;101594.0;;;19.72;100.0
62458;BME280;48509;52.122;5.250;2023-07-13T10:30:32;101601.0;;;19.63;100.0
62458;BME280;48509;52.122;5.250;2023-07-13T10:32:14;101596.0;;;19.61;100.0
62458;BME280;48509;52.122;5.250;2023-07-13T10:35:29;101603.0;;;19.68;100.0
62458;BME280;48509;52.122;5.250;2023-07-13T10:37:09;101605.0;;;19.73;100.0
62458;BME280;48509;52.122;5.250;2023-07-13T10:38:52;101605.0;;;19.64;100.0
62458;BME280;48509;52.122;5.250;2023-07-13T10:42:31;101608.0;;;19.86;100.0
62458;BME280;48509;52.122;5.250;2023-07-13T10:44:18;101599.0;;;20.02;100.0
62458;BME280;48509;52.122;5.250;2023-07-13T10:45:56;101597.0;;;19.77;100.0
62458;BME280;48509;52.122;5.250;2023-07-13T10:47:33;101599.0;;;19.93;100.0
62458;BME280;48509;52.122;5.250;2023-07-13T10:49:11;101597.0;;;20.27;100.0
62458;BME280;48509;52.122;5.250;2023-07-13T10:52:41;101597.0;;;20.32;100.0
62458;BME280;48509;52.122;5.250;2023-07-13T10:54:27;101597.0;;;20.32;100.0
62458;BME280;48509;52.122;5.250;2023-07-13T10:56:15;101603.0;;;20.2;99.69
62458;BME280;48509;52.122;5.250;2023-07-13T10:58:00;101607.0;;;20.48;100.0
62458;BME280;48509;52.122;5.250;2023-07-13T10:59:38;101607.0;;;20.53;100.0
62458;BME280;48509;52.122;5.250;2023-07-13T11:02:57;101606.0;;;20.79;100.0
62458;BME280;48509;52.122;5.250;2023-07-13T11:04:40;101613.0;;;20.7;95.2
62458;BME280;48509;52.122;5.250;2023-07-13T11:06:34;101610.0;;;20.63;97.89
62458;BME280;48509;52.122;5.250;2023-07-13T11:08:16;101611.0;;;20.62;94.65
62458;BME280;48509;52.122;5.250;2023-07-13T11:09:56;101611.0;;;20.73;100.0
62458;BME280;48509;52.122;5.250;2023-07-13T11:13:38;101614.0;;;20.69;93.22